Archival Weather

Bridgeport/Sikorsky

Bridgeport, Connecticut (KBDR)

Report from: Friday, February 23, 2024 12:36 PM EST
Current time: Wednesday, May 29, 2024 8:31 PM EDT

Current weather – Weather history – Daily summaries
Weather forecast

Temperature6.7°C (44.1°F)
Wind chill5.8°C (42.5°F)
Dew point3.9°C (39.0°F)
Winds 3 kts (1.5 m/s, 3.5 mph) Vrb
Winds variableWinds variable
Visibility10 mi. (16.1 km)
Clouds Ceiling: Broken clouds 1,400 ft. (427 m)
Overcast 5,000 ft. (1,524 m)
Altimeter29.49 in.Hg (999 mB)
Relative humidity82 %
Density altitude-381 ft. (-116 m)
Remarks Special weather observation
Automated weather observing station with precipitation discriminator
Flight conditions Marginal Visual Meteorological Conditions
Raw dataSPUS80 KWBC 231742 SPECI KBDR 231736Z VRB03KT 10SM BKN014 OVC050 07/04 A2949 RMK AO2 T00670039
An error has occurred. This application may no longer respond until reloaded. Reload 🗙